createdAt,value
2018-05-15T00:00:57.665Z,88.03
2018-05-15T00:01:58.606Z,87.84
2018-05-15T00:02:57.579Z,86.98
2018-05-15T00:03:58.608Z,88.13
2018-05-15T00:04:58.146Z,88.90
2018-05-15T00:05:58.315Z,88.90
2018-05-15T00:06:57.501Z,88.23
2018-05-15T00:07:58.608Z,88.66
2018-05-15T00:08:57.413Z,89.33
2018-05-15T00:09:57.625Z,89.04
2018-05-15T00:10:57.427Z,88.28
2018-05-15T00:11:57.638Z,88.85
2018-05-15T00:12:57.343Z,89.04
2018-05-15T00:13:58.113Z,89.52
2018-05-15T00:14:57.351Z,89.72
2018-05-15T00:15:57.459Z,89.43
2018-05-15T00:16:57.258Z,89.33
2018-05-15T00:17:57.473Z,89.52
2018-05-15T00:18:57.275Z,89.33
2018-05-15T00:19:57.485Z,90.00
2018-05-15T00:20:58.154Z,89.33
2018-05-15T00:21:57.393Z,89.52
2018-05-15T00:22:57.194Z,89.33
2018-05-15T00:23:57.404Z,89.23
2018-05-15T00:24:57.121Z,89.81
2018-05-15T00:25:57.326Z,89.04
2018-05-15T00:26:57.120Z,90.00
2018-05-15T00:27:57.235Z,89.23
2018-05-15T00:28:57.031Z,89.72
2018-05-15T00:29:57.243Z,89.62
2018-05-15T00:30:57.615Z,89.72
2018-05-15T00:31:57.161Z,89.81
2018-05-15T00:32:56.963Z,89.76
2018-05-15T00:33:57.162Z,90.67
2018-05-15T00:34:57.785Z,89.95
2018-05-15T00:35:57.617Z,89.58
2018-05-15T00:36:56.881Z,89.58
2018-05-15T00:37:59.113Z,89.86
2018-05-15T00:38:56.805Z,90.05
2018-05-15T00:39:58.115Z,90.44
2018-05-15T00:40:56.798Z,89.95
2018-05-15T00:41:58.118Z,89.86
2018-05-15T00:42:57.293Z,90.24
2018-05-15T00:43:56.920Z,90.34
2018-05-15T00:44:58.121Z,90.15
2018-05-15T00:45:56.934Z,90.24
2018-05-15T00:46:57.619Z,89.67
2018-05-15T00:47:56.858Z,90.05
2018-05-15T00:48:56.647Z,90.63
2018-05-15T00:49:58.128Z,90.53
2018-05-15T00:50:56.557Z,90.53
2018-05-15T00:51:58.618Z,90.82
2018-05-15T00:52:56.570Z,90.91
2018-05-15T00:53:56.700Z,90.91
2018-05-15T00:54:56.473Z,90.91
2018-05-15T00:55:58.121Z,90.82
2018-05-15T00:56:56.460Z,90.53
2018-05-15T00:57:57.621Z,90.44
2018-05-15T00:58:57.120Z,89.67
2018-05-15T00:59:59.120Z,90.34
2018-05-15T01:00:57.314Z,91.01
2018-05-15T01:01:56.518Z,90.87
2018-05-15T01:02:59.374Z,90.72
2018-05-15T01:03:56.458Z,90.44
2018-05-15T01:04:57.623Z,90.44
2018-05-15T01:05:57.362Z,90.58
2018-05-15T01:06:56.784Z,90.53
2018-05-15T01:07:56.349Z,90.87
2018-05-15T01:08:57.124Z,91.35
2018-05-15T01:09:56.391Z,91.16
2018-05-15T01:10:57.123Z,91.63
2018-05-15T01:11:56.308Z,91.16
2018-05-15T01:12:56.108Z,91.63
2018-05-15T01:13:57.128Z,92.30
2018-05-15T01:14:56.630Z,92.59
2018-05-15T01:15:56.235Z,92.11
2018-05-15T01:16:56.628Z,91.92
2018-05-15T01:17:56.106Z,91.44
2018-05-15T01:18:55.943Z,90.96
2018-05-15T01:19:57.083Z,91.35
2018-05-15T01:20:55.912Z,91.35
2018-05-15T01:21:58.127Z,90.96
2018-05-15T01:22:55.923Z,91.63
2018-05-15T01:23:56.089Z,92.30
2018-05-15T01:24:56.862Z,91.73
2018-05-15T01:25:58.635Z,91.63
2018-05-15T01:26:56.309Z,91.53
2018-05-15T01:27:55.904Z,91.63
2018-05-15T01:28:55.787Z,91.35
2018-05-15T01:29:56.632Z,91.44
2018-05-15T01:30:59.362Z,91.44
2018-05-15T01:31:56.848Z,90.87
2018-05-15T01:32:55.733Z,91.88
2018-05-15T01:33:55.800Z,91.73
2018-05-15T01:34:58.285Z,91.39
2018-05-15T01:35:55.909Z,91.59
2018-05-15T01:36:55.608Z,91.88
2018-05-15T01:37:57.132Z,92.07
2018-05-15T01:38:57.154Z,92.07
2018-05-15T01:39:55.778Z,92.07
2018-05-15T01:40:55.482Z,91.68
2018-05-15T01:42:02.146Z,92.16
2018-05-15T01:42:59.139Z,92.07
2018-05-15T01:43:55.669Z,92.64
2018-05-15T01:44:55.408Z,92.25
2018-05-15T01:45:55.510Z,92.83
2018-05-15T01:46:57.637Z,92.64
2018-05-15T01:47:56.135Z,92.74
2018-05-15T01:48:55.324Z,92.83
2018-05-15T01:49:55.442Z,92.74
2018-05-15T01:50:55.321Z,93.12
2018-05-15T01:51:55.456Z,92.93
2018-05-15T01:52:56.143Z,92.45
2018-05-15T01:53:57.413Z,91.68
2018-05-15T01:54:55.784Z,91.97
2018-05-15T01:55:55.383Z,91.97
2018-05-15T01:56:55.837Z,93.02
2018-05-15T01:57:55.394Z,92.93
2018-05-15T01:58:55.096Z,92.93
2018-05-15T01:59:55.303Z,92.74
2018-05-15T02:00:55.081Z,92.74
2018-05-15T02:01:56.137Z,92.35
2018-05-15T02:02:55.021Z,91.88
2018-05-15T02:03:56.139Z,91.78
2018-05-15T02:04:56.656Z,92.54
2018-05-15T02:05:55.149Z,92.83
2018-05-15T02:06:54.947Z,92.45
2018-05-15T02:07:55.156Z,92.07
2018-05-15T02:08:54.954Z,92.40
2018-05-15T02:09:55.067Z,92.74
2018-05-15T02:10:54.835Z,92.69
2018-05-15T02:11:55.020Z,92.74
2018-05-15T02:12:54.783Z,92.79
2018-05-15T02:13:54.993Z,93.16
2018-05-15T02:14:54.795Z,92.88
2018-05-15T02:15:55.007Z,92.97
2018-05-15T02:16:56.143Z,92.79
2018-05-15T02:17:54.913Z,93.26
2018-05-15T02:18:55.333Z,93.36
2018-05-15T02:19:55.645Z,92.88
2018-05-15T02:20:55.147Z,92.79
2018-05-15T02:21:54.842Z,92.79
2018-05-15T02:22:56.146Z,92.59
2018-05-15T02:23:54.759Z,92.40
2018-05-15T02:24:54.556Z,92.50
2018-05-15T02:25:54.768Z,92.21
2018-05-15T02:26:54.460Z,92.88
2018-05-15T02:27:56.147Z,92.88
2018-05-15T02:28:55.657Z,92.69
2018-05-15T02:29:55.617Z,92.79
2018-05-15T02:30:54.392Z,92.79
2018-05-15T02:31:55.590Z,93.26
2018-05-15T02:32:54.406Z,93.16
2018-05-15T02:33:54.516Z,93.16
2018-05-15T02:34:54.321Z,93.26
2018-05-15T02:35:55.152Z,93.65
2018-05-15T02:36:55.649Z,92.79
2018-05-15T02:37:55.649Z,92.79
2018-05-15T02:38:56.666Z,93.74
2018-05-15T02:39:54.451Z,93.74
2018-05-15T02:40:54.654Z,93.65
2018-05-15T02:41:55.152Z,93.26
2018-05-15T02:42:54.165Z,93.26
2018-05-15T02:43:56.651Z,93.26
2018-05-15T02:44:54.075Z,93.36
2018-05-15T02:45:55.172Z,93.21
2018-05-15T02:46:54.089Z,93.07
2018-05-15T02:47:55.120Z,93.74
2018-05-15T02:48:54.007Z,93.41
2018-05-15T02:49:55.038Z,93.70
2018-05-15T02:50:54.017Z,93.74
2018-05-15T02:51:56.991Z,93.93
2018-05-15T02:52:54.655Z,94.07
2018-05-15T02:53:55.677Z,93.50
2018-05-15T02:54:54.866Z,93.31
2018-05-15T02:55:54.048Z,93.60
2018-05-15T02:56:53.855Z,93.50
2018-05-15T02:57:54.066Z,94.07
2018-05-15T02:58:54.383Z,94.27
2018-05-15T02:59:53.973Z,94.17
2018-05-15T03:00:55.314Z,93.88
2018-05-15T03:01:54.672Z,93.60
2018-05-15T03:02:54.156Z,93.98
2018-05-15T03:03:53.857Z,93.79
2018-05-15T03:04:53.706Z,93.60
2018-05-15T03:05:53.815Z,93.60
2018-05-15T03:06:54.658Z,93.88
2018-05-15T03:07:53.829Z,93.60
2018-05-15T03:08:53.629Z,93.31
2018-05-15T03:09:53.741Z,93.02
2018-05-15T03:10:53.537Z,92.64
2018-05-15T03:11:53.765Z,92.64
2018-05-15T03:12:54.166Z,92.83
2018-05-15T03:13:53.663Z,93.02
2018-05-15T03:14:53.458Z,93.41
2018-05-15T03:15:54.593Z,93.98
2018-05-15T03:16:54.161Z,94.17
2018-05-15T03:17:56.661Z,94.17
2018-05-15T03:18:53.387Z,93.98
2018-05-15T03:19:55.163Z,93.50
2018-05-15T03:20:53.295Z,93.60
2018-05-15T03:21:53.506Z,93.88
2018-05-15T03:22:53.307Z,93.79
2018-05-15T03:23:54.183Z,93.60
2018-05-15T03:24:53.229Z,93.79
2018-05-15T03:25:55.665Z,93.60
2018-05-15T03:26:53.135Z,93.79
2018-05-15T03:27:53.247Z,93.60
2018-05-15T03:28:53.098Z,93.60
2018-05-15T03:29:54.668Z,93.31
2018-05-15T03:30:53.045Z,93.79
2018-05-15T03:31:53.696Z,93.60
2018-05-15T03:32:53.281Z,93.41
2018-05-15T03:33:52.982Z,93.70
2018-05-15T03:34:54.678Z,93.55
2018-05-15T03:35:52.991Z,93.17
2018-05-15T03:36:52.951Z,93.07
2018-05-15T03:37:52.878Z,92.60
2018-05-15T03:38:53.113Z,92.69
2018-05-15T03:39:52.894Z,92.88
2018-05-15T03:40:53.954Z,92.79
2018-05-15T03:41:54.208Z,93.07
2018-05-15T03:42:53.040Z,93.36
2018-05-15T03:43:52.741Z,92.97
2018-05-15T03:44:53.674Z,93.55
2018-05-15T03:45:52.751Z,93.36
2018-05-15T03:46:54.671Z,93.07
2018-05-15T03:47:52.667Z,92.97
2018-05-15T03:48:53.869Z,92.79
2018-05-15T03:49:52.638Z,92.60
2018-05-15T03:50:54.679Z,93.17
2018-05-15T03:51:52.594Z,93.74
2018-05-15T03:52:53.688Z,92.88
2018-05-15T03:53:53.219Z,92.97
2018-05-15T03:54:54.358Z,92.79
2018-05-15T03:55:52.516Z,92.79
2018-05-15T03:56:53.696Z,93.65
2018-05-15T03:57:52.478Z,93.55
2018-05-15T03:58:52.584Z,93.36
2018-05-15T03:59:53.171Z,93.17
2018-05-15T04:00:56.182Z,93.36
2018-05-15T04:01:53.173Z,93.36
2018-05-15T04:02:52.562Z,93.65
2018-05-15T04:03:53.174Z,93.46
2018-05-15T04:04:52.577Z,93.55
2018-05-15T04:05:53.676Z,93.36
2018-05-15T04:06:52.491Z,92.97
2018-05-15T04:07:52.295Z,92.97
2018-05-15T04:08:52.450Z,93.55
2018-05-15T04:09:52.903Z,93.55
2018-05-15T04:10:53.755Z,93.74
2018-05-15T04:11:52.677Z,93.17
2018-05-15T04:12:54.676Z,92.88
2018-05-15T04:13:53.710Z,93.46
2018-05-15T04:14:54.677Z,93.55
2018-05-15T04:15:52.040Z,93.36
2018-05-15T04:16:53.190Z,93.46
2018-05-15T04:17:51.999Z,93.65
2018-05-15T04:18:52.721Z,92.88
2018-05-15T04:19:52.683Z,93.07
2018-05-15T04:20:52.681Z,93.84
2018-05-15T04:21:51.880Z,94.03
2018-05-15T04:22:53.825Z,93.84
2018-05-15T04:23:52.682Z,93.17
2018-05-15T04:24:52.696Z,93.65
2018-05-15T04:25:55.182Z,93.17
2018-05-15T04:26:52.012Z,93.36
2018-05-15T04:27:52.384Z,93.65
2018-05-15T04:28:52.023Z,93.93
2018-05-15T04:29:51.777Z,93.84
2018-05-15T04:30:51.933Z,94.03
2018-05-15T04:31:51.736Z,93.93
2018-05-15T04:32:51.953Z,93.84
2018-05-15T04:33:51.642Z,93.36
2018-05-15T04:34:52.682Z,93.65
2018-05-15T04:35:52.185Z,93.46
2018-05-15T04:36:51.826Z,93.46
2018-05-15T04:37:52.391Z,93.17
2018-05-15T04:38:52.686Z,93.17
2018-05-15T04:39:51.533Z,92.69
2018-05-15T04:40:52.183Z,93.55
2018-05-15T04:41:52.689Z,93.17
2018-05-15T04:42:53.190Z,93.46
2018-05-15T04:43:54.417Z,93.55
2018-05-15T04:44:53.206Z,92.79
2018-05-15T04:45:51.427Z,92.97
2018-05-15T04:46:51.890Z,92.64
2018-05-15T04:47:51.333Z,92.74
2018-05-15T04:48:52.187Z,92.74
2018-05-15T04:49:51.249Z,92.93
2018-05-15T04:50:52.188Z,92.83
2018-05-15T04:51:51.259Z,92.45
2018-05-15T04:52:51.408Z,91.88
2018-05-15T04:53:52.190Z,91.88
2018-05-15T04:54:51.893Z,92.07
2018-05-15T04:55:51.901Z,92.07
2018-05-15T04:56:51.332Z,91.59
2018-05-15T04:57:51.099Z,91.40
2018-05-15T04:58:51.307Z,91.30
2018-05-15T04:59:51.009Z,91.50
2018-05-15T05:00:52.701Z,91.35
2018-05-15T05:01:52.755Z,90.30
2018-05-15T05:02:52.194Z,89.87
2018-05-15T05:03:51.690Z,89.73
2018-05-15T05:04:51.694Z,89.25
2018-05-15T05:05:51.694Z,89.06
2018-05-15T05:06:51.622Z,89.34
2018-05-15T05:07:51.721Z,89.34
2018-05-15T05:08:52.194Z,88.68
2018-05-15T05:09:52.192Z,88.58
2018-05-15T05:10:51.696Z,88.58
2018-05-15T05:11:50.826Z,87.91
2018-05-15T05:12:52.210Z,87.91
2018-05-15T05:13:52.694Z,88.72
2018-05-15T05:14:52.194Z,88.68
2018-05-15T05:15:51.200Z,88.48
2018-05-15T05:16:51.697Z,87.95
2018-05-15T05:17:50.623Z,88.53
2018-05-15T05:18:50.779Z,88.81
2018-05-15T05:19:51.214Z,87.95
2018-05-15T05:20:51.695Z,88.05
2018-05-15T05:21:51.386Z,87.86
2018-05-15T05:22:50.779Z,86.71
2018-05-15T05:23:52.201Z,86.23
2018-05-15T05:24:52.198Z,86.23
2018-05-15T05:25:51.201Z,85.94
2018-05-15T05:26:50.769Z,85.85
2018-05-15T05:27:51.202Z,85.22
2018-05-15T05:28:51.200Z,84.65
2018-05-15T05:29:51.199Z,84.36
2018-05-15T05:30:51.199Z,84.17
2018-05-15T05:31:50.304Z,84.36
2018-05-15T05:32:51.202Z,83.12
2018-05-15T05:33:51.203Z,83.03
2018-05-15T05:34:50.486Z,83.12
2018-05-15T05:35:51.202Z,83.31
2018-05-15T05:36:51.201Z,82.93
2018-05-15T05:37:50.154Z,82.78
2018-05-15T05:38:51.202Z,82.01
2018-05-15T05:39:50.702Z,82.49
2018-05-15T05:40:50.703Z,82.68
2018-05-15T05:41:51.203Z,83.06
2018-05-15T05:42:50.069Z,83.45
2018-05-15T05:43:51.203Z,83.26
2018-05-15T05:44:50.726Z,82.59
2018-05-15T05:45:51.735Z,82.68
2018-05-15T05:46:50.703Z,82.49
2018-05-15T05:47:50.215Z,81.82
2018-05-15T05:48:49.912Z,81.25
2018-05-15T05:49:51.032Z,81.92
2018-05-15T05:50:50.707Z,81.73
2018-05-15T05:51:50.754Z,81.44
2018-05-15T05:52:50.721Z,81.67
2018-05-15T05:53:50.726Z,81.48
2018-05-15T05:54:50.706Z,81.48
2018-05-15T05:55:50.370Z,81.29
2018-05-15T05:56:52.731Z,81.20
2018-05-15T05:57:50.706Z,80.24
2018-05-15T05:58:50.708Z,80.24
2018-05-15T05:59:49.676Z,80.90
2018-05-15T06:00:50.709Z,81.29
2018-05-15T06:01:50.209Z,80.90
2018-05-15T06:02:49.695Z,80.62
2018-05-15T06:03:50.210Z,80.90
2018-05-15T06:04:49.813Z,80.04
2018-05-15T06:05:49.610Z,80.81
2018-05-15T06:06:50.221Z,80.81
2018-05-15T06:07:49.521Z,80.76
2018-05-15T06:08:50.215Z,79.99
2018-05-15T06:09:49.542Z,79.80
2018-05-15T06:10:50.217Z,79.70
2018-05-15T06:11:50.214Z,79.51
2018-05-15T06:12:51.210Z,79.70
2018-05-15T06:13:50.212Z,79.60
2018-05-15T06:14:50.215Z,79.51
2018-05-15T06:15:49.376Z,79.51
2018-05-15T06:16:49.577Z,79.22
2018-05-15T06:17:50.212Z,78.93
2018-05-15T06:18:50.221Z,78.88
2018-05-15T06:19:49.288Z,78.07
2018-05-15T06:20:50.440Z,78.02
2018-05-15T06:21:49.713Z,77.82
2018-05-15T06:22:49.409Z,78.20
2018-05-15T06:23:49.229Z,78.20
2018-05-15T06:24:50.213Z,77.73
2018-05-15T06:25:49.716Z,77.63
2018-05-15T06:26:50.228Z,77.25
2018-05-15T06:27:49.716Z,77.44
2018-05-15T06:28:50.214Z,77.34
2018-05-15T06:29:49.718Z,77.53
2018-05-15T06:30:49.255Z,77.15
2018-05-15T06:31:49.717Z,77.38
2018-05-15T06:32:49.718Z,76.62
2018-05-15T06:33:50.218Z,76.71
2018-05-15T06:34:49.718Z,76.71
2018-05-15T06:35:48.883Z,76.71
2018-05-15T06:36:49.389Z,76.71
2018-05-15T06:37:50.235Z,76.52
2018-05-15T06:38:49.032Z,75.85
2018-05-15T06:39:48.825Z,75.46
2018-05-15T06:40:50.739Z,75.18
2018-05-15T06:41:48.833Z,74.79
2018-05-15T06:42:48.947Z,74.41
2018-05-15T06:43:48.749Z,74.31
2018-05-15T06:44:48.974Z,74.26
2018-05-15T06:45:48.726Z,73.87
2018-05-15T06:46:48.770Z,72.53
2018-05-15T06:47:49.226Z,74.06
2018-05-15T06:48:49.722Z,74.54
2018-05-15T06:49:49.374Z,73.39
2018-05-15T06:50:49.223Z,74.54
2018-05-15T06:51:49.225Z,73.39
2018-05-15T06:52:48.775Z,71.95
2018-05-15T06:53:48.512Z,72.72
2018-05-15T06:54:48.725Z,72.05
2018-05-15T06:55:48.520Z,71.95
2018-05-15T06:56:51.229Z,72.28
2018-05-15T06:57:48.498Z,72.66
2018-05-15T06:58:48.711Z,73.04
2018-05-15T06:59:48.452Z,72.56
2018-05-15T07:00:49.512Z,72.85
2018-05-15T07:01:48.366Z,72.56
2018-05-15T07:02:48.531Z,72.18
2018-05-15T07:03:48.886Z,71.12
2018-05-15T07:04:48.244Z,70.45
2018-05-15T07:05:48.165Z,70.17
2018-05-15T07:06:49.177Z,70.20
2018-05-15T07:07:48.184Z,71.25
2018-05-15T07:08:48.166Z,71.45
2018-05-15T07:09:48.077Z,70.20
2018-05-15T07:10:48.075Z,70.68
2018-05-15T07:11:48.037Z,70.29
2018-05-15T07:12:48.089Z,70.29
2018-05-15T07:13:47.996Z,69.24
2018-05-15T07:14:47.999Z,67.41
2018-05-15T07:15:47.958Z,67.22
2018-05-15T07:16:48.016Z,67.99
2018-05-15T07:17:47.913Z,67.99
2018-05-15T07:18:47.921Z,67.80
2018-05-15T07:19:47.871Z,67.16
2018-05-15T07:20:47.934Z,67.45
2018-05-15T07:21:47.832Z,66.00
2018-05-15T07:22:47.845Z,66.00
2018-05-15T07:23:47.792Z,65.43
2018-05-15T07:24:47.857Z,65.14
2018-05-15T07:25:47.757Z,66.10
2018-05-15T07:26:47.771Z,66.39
2018-05-15T07:27:47.709Z,66.39
2018-05-15T07:28:47.784Z,66.00
2018-05-15T07:29:47.665Z,66.20
2018-05-15T07:30:47.691Z,66.58
2018-05-15T07:31:47.628Z,65.81
2018-05-15T07:32:47.706Z,65.23
2018-05-15T07:33:47.586Z,65.46
2018-05-15T07:34:47.613Z,64.79
2018-05-15T07:35:47.550Z,65.75
2018-05-15T07:36:47.628Z,65.27
2018-05-15T07:37:47.507Z,63.92
2018-05-15T07:38:47.538Z,64.31
2018-05-15T07:39:47.469Z,64.60
2018-05-15T07:40:47.558Z,64.60
2018-05-15T07:41:47.427Z,63.73
2018-05-15T07:42:47.463Z,64.05
2018-05-15T07:43:47.387Z,63.54
2018-05-15T07:44:47.473Z,63.45
2018-05-15T07:45:47.346Z,63.76
2018-05-15T07:46:47.378Z,64.15
2018-05-15T07:47:47.305Z,63.38
2018-05-15T07:48:47.393Z,63.38
2018-05-15T07:49:47.267Z,63.57
2018-05-15T07:50:47.308Z,63.09
2018-05-15T07:51:47.221Z,62.51
2018-05-15T07:52:47.318Z,61.94
2018-05-15T07:53:47.239Z,61.55
2018-05-15T07:54:47.233Z,61.94
2018-05-15T07:55:47.145Z,61.74
2018-05-15T07:56:47.238Z,62.51
2018-05-15T07:57:47.108Z,61.29
2018-05-15T07:58:47.147Z,62.41
2018-05-15T07:59:47.067Z,63.31
2018-05-15T08:00:47.159Z,63.31
2018-05-15T08:01:47.035Z,62.64
2018-05-15T08:02:47.070Z,62.54
2018-05-15T08:03:46.992Z,63.02
2018-05-15T08:04:47.083Z,61.97
2018-05-15T08:05:46.949Z,62.06
2018-05-15T08:06:46.994Z,61.49
2018-05-15T08:07:46.920Z,60.81
2018-05-15T08:08:47.004Z,60.33
2018-05-15T08:09:46.872Z,58.82
2018-05-15T08:10:46.919Z,59.11
2018-05-15T08:11:46.834Z,60.55
2018-05-15T08:12:46.927Z,59.49
2018-05-15T08:13:46.795Z,59.20
2018-05-15T08:14:46.837Z,59.01
2018-05-15T08:15:46.756Z,58.34
2018-05-15T08:16:46.854Z,59.78
2018-05-15T08:17:46.717Z,58.34
2018-05-15T08:18:46.764Z,58.72
2018-05-15T08:19:46.684Z,58.82
2018-05-15T08:20:46.772Z,60.10
2018-05-15T08:21:46.640Z,60.00
2018-05-15T08:22:46.682Z,60.00
2018-05-15T08:23:46.602Z,58.17
2018-05-15T08:24:46.694Z,58.56
2018-05-15T08:25:46.564Z,60.00
2018-05-15T08:26:46.606Z,58.85
2018-05-15T08:27:46.533Z,59.62
2018-05-15T08:28:46.618Z,57.31
2018-05-15T08:29:46.490Z,59.07
2018-05-15T08:30:46.548Z,58.95
2018-05-15T08:31:46.454Z,57.92
2018-05-15T08:32:46.539Z,56.18
2018-05-15T08:33:46.410Z,55.60
2018-05-15T08:34:46.451Z,55.99
2018-05-15T08:35:46.376Z,55.70
2018-05-15T08:36:46.463Z,56.40
2018-05-15T08:37:46.339Z,54.47
2018-05-15T08:38:46.373Z,56.30
2018-05-15T08:39:46.300Z,55.44
2018-05-15T08:40:46.388Z,56.11
2018-05-15T08:41:46.263Z,56.79
2018-05-15T08:42:46.296Z,56.98
2018-05-15T08:43:46.225Z,56.72
2018-05-15T08:44:46.318Z,55.46
2018-05-15T08:45:46.191Z,55.08
2018-05-15T08:46:46.221Z,53.37
2018-05-15T08:47:46.156Z,53.75
2018-05-15T08:48:46.232Z,55.40
2018-05-15T08:49:46.113Z,53.66
2018-05-15T08:50:46.093Z,53.56
2018-05-15T08:51:46.223Z,52.62
2018-05-15T08:52:46.057Z,51.17
2018-05-15T08:53:46.137Z,53.42
2018-05-15T08:54:46.021Z,52.45
2018-05-15T08:55:46.013Z,53.61
2018-05-15T08:56:46.155Z,50.43
2018-05-15T08:57:45.967Z,50.43
2018-05-15T08:58:46.063Z,50.71
2018-05-15T08:59:45.932Z,49.37
2018-05-15T09:00:46.077Z,50.23
2018-05-15T09:01:45.903Z,48.30
2018-05-15T09:02:45.915Z,47.91
2018-05-15T09:03:45.862Z,50.43
2018-05-15T09:04:46.000Z,48.90
2018-05-15T09:05:45.827Z,50.55
2018-05-15T09:06:45.915Z,50.35
2018-05-15T09:07:45.788Z,53.09
2018-05-15T09:08:45.844Z,52.73
2018-05-15T09:09:45.754Z,49.73
2018-05-15T09:10:45.839Z,46.66
2018-05-15T09:11:45.718Z,47.91
2018-05-15T09:12:45.851Z,49.65
2018-05-15T09:13:45.683Z,46.94
2018-05-15T09:14:45.765Z,50.07
2018-05-15T09:15:45.693Z,49.29
2018-05-15T09:16:45.779Z,47.96
2018-05-15T09:17:45.615Z,47.67
2018-05-15T09:18:45.793Z,48.44
2018-05-15T09:19:45.577Z,47.47
2018-05-15T09:20:45.704Z,45.73
2018-05-15T09:21:45.543Z,45.22
2018-05-15T09:22:46.644Z,46.39
2018-05-15T09:23:45.509Z,47.94
2018-05-15T09:24:45.631Z,46.22
2018-05-15T09:25:45.474Z,46.02
2018-05-15T09:26:45.645Z,45.15
2018-05-15T09:27:45.440Z,46.51
2018-05-15T09:28:45.556Z,45.27
2018-05-15T09:29:45.409Z,45.95
2018-05-15T09:30:45.571Z,44.68
2018-05-15T09:31:45.376Z,46.14
2018-05-15T09:32:45.484Z,47.20
2018-05-15T09:33:45.345Z,45.39
2018-05-15T09:34:45.501Z,45.48
2018-05-15T09:35:45.312Z,45.99
2018-05-15T09:36:45.510Z,42.60
2018-05-15T09:37:45.285Z,42.60
2018-05-15T09:38:45.423Z,42.21
2018-05-15T09:39:45.250Z,43.37
2018-05-15T09:40:45.337Z,42.60
2018-05-15T09:41:45.212Z,42.11
2018-05-15T09:42:45.246Z,39.16
2018-05-15T09:43:45.182Z,41.78
2018-05-15T09:44:45.272Z,42.75
2018-05-15T09:45:45.151Z,43.93
2018-05-15T09:46:46.200Z,41.43
2018-05-15T09:47:45.120Z,42.40
2018-05-15T09:48:45.187Z,41.33
2018-05-15T09:49:45.088Z,41.55
2018-05-15T09:50:45.201Z,41.45
2018-05-15T09:51:45.060Z,42.91
2018-05-15T09:52:45.115Z,41.45
2018-05-15T09:53:45.027Z,42.13
2018-05-15T09:54:45.126Z,42.23
2018-05-15T09:55:44.994Z,39.70
2018-05-15T09:56:45.038Z,38.23
2018-05-15T09:57:44.967Z,40.26
2018-05-15T09:58:45.052Z,40.36
2018-05-15T09:59:44.936Z,42.60
2018-05-15T10:00:44.964Z,39.80
2018-05-15T10:01:44.923Z,39.61
2018-05-15T10:02:44.897Z,39.70
2018-05-15T10:03:44.984Z,39.80
2018-05-15T10:04:44.859Z,40.19
2018-05-15T10:05:44.897Z,40.58
2018-05-15T10:06:44.835Z,40.29
2018-05-15T10:07:44.875Z,39.92
2018-05-15T10:08:44.814Z,38.85
2018-05-15T10:09:44.783Z,39.04
2018-05-15T10:10:44.830Z,38.27
2018-05-15T10:11:44.762Z,38.29
2018-05-15T10:12:44.845Z,36.63
2018-05-15T10:13:44.725Z,36.61
2018-05-15T10:14:44.755Z,37.49
2018-05-15T10:15:44.698Z,38.46
2018-05-15T10:16:44.768Z,35.86
2018-05-15T10:17:44.675Z,40.81
2018-05-15T10:18:44.680Z,38.21
2018-05-15T10:19:44.643Z,37.62
2018-05-15T10:20:44.699Z,36.26
2018-05-15T10:21:44.616Z,35.29
2018-05-15T10:22:44.729Z,36.26
2018-05-15T10:23:44.576Z,37.82
2018-05-15T10:24:44.626Z,35.78
2018-05-15T10:25:44.560Z,36.36
2018-05-15T10:26:44.636Z,36.26
2018-05-15T10:27:44.530Z,34.61
2018-05-15T10:28:44.549Z,34.79
2018-05-15T10:29:44.510Z,33.81
2018-05-15T10:30:44.563Z,36.24
2018-05-15T10:31:44.473Z,35.76
2018-05-15T10:32:44.475Z,35.76
2018-05-15T10:33:44.442Z,37.32
2018-05-15T10:34:44.493Z,36.73
2018-05-15T10:35:44.419Z,36.65
2018-05-15T10:36:44.501Z,36.94
2018-05-15T10:37:44.388Z,36.57
2018-05-15T10:38:44.470Z,37.26
2018-05-15T10:39:44.360Z,38.93
2018-05-15T10:40:44.444Z,36.20
2018-05-15T10:41:44.335Z,33.77
2018-05-15T10:42:44.337Z,33.96
2018-05-15T10:43:44.305Z,36.88
2018-05-15T10:44:44.351Z,35.61
2018-05-15T10:45:44.279Z,35.91
2018-05-15T10:46:44.366Z,34.84
2018-05-15T10:47:44.255Z,33.96
2018-05-15T10:48:44.239Z,34.55
2018-05-15T10:49:44.396Z,37.85
2018-05-15T10:50:44.215Z,36.20
2018-05-15T10:51:44.298Z,36.79
2018-05-15T10:52:44.189Z,36.69
2018-05-15T10:53:44.177Z,36.51
2018-05-15T10:54:44.168Z,36.22
2018-05-15T10:55:44.329Z,36.14
2018-05-15T10:56:44.138Z,36.24
2018-05-15T10:57:44.244Z,35.46
2018-05-15T10:58:44.109Z,34.19
2018-05-15T10:59:44.262Z,33.49
2018-05-15T11:00:44.078Z,33.88
2018-05-15T11:01:44.184Z,35.83
2018-05-15T11:02:44.062Z,34.95
2018-05-15T11:03:44.185Z,36.24
2018-05-15T11:04:44.036Z,37.02
2018-05-15T11:05:44.196Z,36.45
2018-05-15T11:06:44.008Z,34.79
2018-05-15T11:07:44.109Z,35.47
2018-05-15T11:08:43.983Z,35.28
2018-05-15T11:09:44.122Z,35.96
2018-05-15T11:10:43.959Z,35.67
2018-05-15T11:11:44.140Z,35.77
2018-05-15T11:12:44.005Z,34.79
2018-05-15T11:13:44.050Z,33.33
2018-05-15T11:14:43.909Z,33.72
2018-05-15T11:15:44.063Z,36.45
2018-05-15T11:16:43.882Z,33.82
2018-05-15T11:17:44.086Z,35.30
2018-05-15T11:18:43.881Z,33.06
2018-05-15T11:19:43.988Z,32.67
2018-05-15T11:20:43.860Z,32.76
2018-05-15T11:21:44.002Z,32.55
2018-05-15T11:22:43.815Z,32.84
2018-05-15T11:23:43.913Z,34.11
2018-05-15T11:24:43.782Z,34.99
2018-05-15T11:25:43.928Z,31.77
2018-05-15T11:26:43.762Z,32.45
2018-05-15T11:27:43.941Z,31.85
2018-05-15T11:28:43.742Z,33.80
2018-05-15T11:29:43.853Z,33.61
2018-05-15T11:30:43.717Z,31.37
2018-05-15T11:31:43.866Z,33.90
2018-05-15T11:32:43.693Z,33.20
2018-05-15T11:33:43.883Z,34.66
2018-05-15T11:34:43.669Z,34.08
2018-05-15T11:35:43.840Z,35.25
2018-05-15T11:36:43.644Z,35.83
2018-05-15T11:37:43.808Z,35.34
2018-05-15T11:38:43.637Z,35.26
2018-05-15T11:39:43.830Z,37.33
2018-05-15T11:40:43.599Z,37.93
2018-05-15T11:41:43.751Z,38.34
2018-05-15T11:42:43.579Z,36.11
2018-05-15T11:43:43.655Z,35.04
2018-05-15T11:44:43.634Z,34.57
2018-05-15T11:45:43.662Z,34.16
2018-05-15T11:46:43.527Z,33.77
2018-05-15T11:47:43.761Z,32.50
2018-05-15T11:48:44.203Z,32.89
2018-05-15T11:49:44.184Z,33.75
2018-05-15T11:50:44.316Z,33.18
2018-05-15T11:51:44.269Z,33.28
2018-05-15T11:52:44.051Z,33.87
2018-05-15T11:53:43.521Z,33.97
2018-05-15T11:54:43.438Z,32.62
2018-05-15T11:55:43.505Z,31.92
2018-05-15T11:56:43.419Z,32.50
2018-05-15T11:57:43.543Z,32.29
2018-05-15T11:58:43.402Z,33.75
2018-05-15T11:59:43.444Z,33.56
2018-05-15T12:00:43.373Z,32.58
2018-05-15T12:01:43.467Z,33.85
2018-05-15T12:02:43.366Z,37.37
2018-05-15T12:03:43.556Z,34.45
2018-05-15T12:04:43.329Z,34.84
2018-05-15T12:05:43.392Z,34.26
2018-05-15T12:06:43.309Z,34.38
2018-05-15T12:07:43.406Z,35.35
2018-05-15T12:08:43.287Z,34.08
2018-05-15T12:09:43.425Z,34.97
2018-05-15T12:10:43.364Z,32.35
2018-05-15T12:11:43.258Z,32.53
2018-05-15T12:12:43.247Z,30.97
2018-05-15T12:13:43.350Z,31.25
2018-05-15T12:14:43.227Z,32.13
2018-05-15T12:15:43.259Z,33.11
2018-05-15T12:16:43.204Z,35.06
2018-05-15T12:17:43.274Z,31.84
2018-05-15T12:18:43.187Z,32.81
2018-05-15T12:19:43.298Z,33.79
2018-05-15T12:20:43.162Z,29.98
2018-05-15T12:21:43.199Z,35.16
2018-05-15T12:22:43.143Z,32.63
2018-05-15T12:23:43.219Z,33.02
2018-05-15T12:24:43.121Z,33.90
2018-05-15T12:25:43.126Z,31.56
2018-05-15T12:26:43.102Z,31.45
2018-05-15T12:27:43.323Z,31.35
2018-05-15T12:28:43.081Z,35.16
2018-05-15T12:29:43.198Z,35.36
2018-05-15T12:30:43.060Z,33.80
2018-05-15T12:31:43.066Z,34.88
2018-05-15T12:32:43.039Z,32.94
2018-05-15T12:33:43.083Z,31.48
2018-05-15T12:34:43.022Z,31.57
2018-05-15T12:35:43.120Z,32.94
2018-05-15T12:36:43.014Z,34.13
2018-05-15T12:37:43.005Z,31.59
2018-05-15T12:38:42.980Z,29.44
2018-05-15T12:39:43.018Z,32.55
2018-05-15T12:40:42.961Z,31.57
2018-05-15T12:41:43.083Z,32.55
2018-05-15T12:42:42.943Z,32.76
2018-05-15T12:43:43.047Z,31.49
2018-05-15T12:44:42.922Z,32.07
2018-05-15T12:45:42.959Z,28.72
2018-05-15T12:46:42.991Z,31.08
2018-05-15T12:47:43.000Z,31.26
2018-05-15T12:48:43.002Z,29.98
2018-05-15T12:49:42.987Z,30.26
2018-05-15T12:50:42.867Z,30.54
2018-05-15T12:51:42.897Z,34.73
2018-05-15T12:52:42.840Z,32.68